Terminal Aerodrome Forecast
Issued by NWS Louisville, KY

Home | Current Version | Previous Version | Text Only | Print | Product List | Glossary On
Versions: 1 2 3 4 5 6 7 8 9 10 11 12 13 14
000
FTUS43 KLMK 261720
TAFLEX
TAF
KLEX 261720Z 2618/2718 20007KT P6SM SCT200
     FM262300 16005KT P6SM BKN080
     FM271100 15007KT P6SM VCSH OVC060
     FM271400 17010KT P6SM VCSH OVC045=

USA.gov is the U.S. government's official web portal to all federal, state and local government web resources and services.